Time;durP1;ratioP1;P1;durP2;ratioP2;P2;SDS_P1;SDS_P2;PMS_P1;PMS_P2;Temp;Humidity;BMP_temperature;BMP_pressure;BME280_temperature;BME280_humidity;BME280_pressure;Samples;Min_cycle;Max_cycle;Signal;HPM_P1;HPM_P2
2023/08/23 00:00:14;;;;;;;0.43;0.43;;;;;;;;;;1053255;28;20058;-25
2023/08/23 00:00:44;;;;;;;1.10;0.68;;;;;;;;;;1053207;28;20032;-25
2023/08/23 00:01:15;;;;;;;2.42;2.22;;;;;;;;;;1053225;28;20031;-25
2023/08/23 00:01:45;;;;;;;0.32;0.32;;;;;;;;;;1053289;28;20028;-25
2023/08/23 00:02:16;;;;;;;0.60;0.60;;;;;;;;;;1053257;28;20054;-25
2023/08/23 00:02:46;;;;;;;0.30;0.25;;;;;;;;;;1053090;28;20114;-25
2023/08/23 00:03:17;;;;;;;1.00;0.47;;;;;;;;;;1053284;28;20035;-25
2023/08/23 00:03:47;;;;;;;0.95;0.60;;;;;;;;;;1053256;28;20031;-24
2023/08/23 00:04:19;;;;;;;0.10;0.10;;;;;;;;;;1053163;28;20024;-25
2023/08/23 00:04:49;;;;;;;1.08;1.08;;;;;;;;;;1053131;28;20039;-24
2023/08/23 00:05:21;;;;;;;0.22;0.22;;;;;;;;;;1053146;28;20058;-26
2023/08/23 00:05:51;;;;;;;0.45;0.45;;;;;;;;;;1053122;28;20042;-24
2023/08/23 00:06:23;;;;;;;1.85;0.45;;;;;;;;;;1053207;28;20039;-25
2023/08/23 00:06:53;;;;;;;0.28;0.28;;;;;;;;;;1053236;28;20032;-25
2023/08/23 00:07:24;;;;;;;3.83;0.82;;;;;;;;;;1053105;28;20020;-24
2023/08/23 00:07:54;;;;;;;1.30;1.30;;;;;;;;;;1053164;28;20024;-25
2023/08/23 00:08:25;;;;;;;0.00;0.00;;;;;;;;;;1053155;28;20038;-25
2023/08/23 00:08:55;;;;;;;0.00;0.00;;;;;;;;;;1053216;28;20024;-26
2023/08/23 00:09:26;;;;;;;0.28;0.28;;;;;;;;;;1053170;28;20028;-25
2023/08/23 00:09:56;;;;;;;0.90;0.85;;;;;;;;;;1053091;28;20067;-26
2023/08/23 00:10:27;;;;;;;0.20;0.20;;;;;;;;;;1053314;28;20024;-25
2023/08/23 00:10:57;;;;;;;0.43;0.43;;;;;;;;;;1052903;28;20526;-25
2023/08/23 00:11:28;;;;;;;0.05;0.05;;;;;;;;;;1053289;28;20054;-25
2023/08/23 00:11:58;;;;;;;0.88;0.85;;;;;;;;;;1053089;28;20027;-25
2023/08/23 00:12:28;;;;;;;0.20;0.20;;;;;;;;;;1053158;28;20064;-24
2023/08/23 00:12:59;;;;;;;0.73;0.55;;;;;;;;;;1053163;28;20364;-25
2023/08/23 00:13:30;;;;;;;0.10;0.10;;;;;;;;;;1053364;28;20118;-25
2023/08/23 00:14:00;;;;;;;0.28;0.28;;;;;;;;;;1053072;28;20450;-25
2023/08/23 00:14:30;;;;;;;1.52;0.75;;;;;;;;;;1053207;28;20115;-25
2023/08/23 00:15:01;;;;;;;2.72;1.55;;;;;;;;;;1053077;28;20028;-25
2023/08/23 00:15:31;;;;;;;0.05;0.05;;;;;;;;;;1053355;28;20470;-25
2023/08/23 00:16:02;;;;;;;0.30;0.30;;;;;;;;;;1049560;28;20020;-25
2023/08/23 00:16:32;;;;;;;0.80;0.35;;;;;;;;;;1049144;28;20395;-26
2023/08/23 00:17:03;;;;;;;0.13;0.13;;;;;;;;;;1048828;28;20491;-23
2023/08/23 00:17:33;;;;;;;0.45;0.20;;;;;;;;;;1048949;28;20489;-25
2023/08/23 00:18:04;;;;;;;0.17;0.17;;;;;;;;;;1048907;28;20025;-25
2023/08/23 00:18:34;;;;;;;0.30;0.30;;;;;;;;;;1049048;28;20033;-26
2023/08/23 00:19:04;;;;;;;1.13;0.85;;;;;;;;;;1048753;28;20024;-26
2023/08/23 00:19:35;;;;;;;0.10;0.10;;;;;;;;;;1049080;28;20032;-24
2023/08/23 00:20:06;;;;;;;0.10;0.10;;;;;;;;;;1048760;28;20126;-25
2023/08/23 00:20:36;;;;;;;0.25;0.25;;;;;;;;;;1050163;28;20021;-24
2023/08/23 00:21:06;;;;;;;0.15;0.15;;;;;;;;;;1052998;28;20016;-24
2023/08/23 00:21:37;;;;;;;1.77;1.48;;;;;;;;;;1053220;28;20035;-25
2023/08/23 00:22:07;;;;;;;1.20;0.80;;;;;;;;;;1053042;28;20032;-26
2023/08/23 00:22:38;;;;;;;0.30;0.30;;;;;;;;;;1053048;28;20038;-24
2023/08/23 00:23:08;;;;;;;0.40;0.40;;;;;;;;;;1053023;28;20028;-25
2023/08/23 00:23:39;;;;;;;0.15;0.15;;;;;;;;;;1053340;28;20020;-25
2023/08/23 00:24:09;;;;;;;0.00;0.00;;;;;;;;;;1052957;28;20020;-25
2023/08/23 00:24:40;;;;;;;0.00;0.00;;;;;;;;;;1053259;28;20030;-26
2023/08/23 00:25:10;;;;;;;0.10;0.10;;;;;;;;;;1052951;28;20027;-23
2023/08/23 00:25:41;;;;;;;1.17;0.55;;;;;;;;;;1053225;28;20463;-25
2023/08/23 00:26:11;;;;;;;0.30;0.30;;;;;;;;;;1053000;28;20376;-26
2023/08/23 00:26:42;;;;;;;0.17;0.17;;;;;;;;;;1053143;28;20421;-25
2023/08/23 00:27:12;;;;;;;0.95;0.95;;;;;;;;;;1053174;28;20293;-24
2023/08/23 00:27:42;;;;;;;0.30;0.30;;;;;;;;;;1052974;28;20036;-25
2023/08/23 00:28:15;;;;;;;0.15;0.15;;;;;;;;;;1053141;28;20395;-25
2023/08/23 00:28:46;;;;;;;1.08;0.22;;;;;;;;;;1053032;28;20045;-26
2023/08/23 00:29:16;;;;;;;0.70;0.70;;;;;;;;;;1052542;28;20028;-23
2023/08/23 00:29:47;;;;;;;0.52;0.47;;;;;;;;;;1052751;28;20063;-25
2023/08/23 00:30:17;;;;;;;0.10;0.05;;;;;;;;;;1052866;28;20111;-25
2023/08/23 00:30:51;;;;;;;6.50;1.75;;;;;;;;;;1052737;28;20092;-25
2023/08/23 00:31:22;;;;;;;0.10;0.10;;;;;;;;;;1053179;28;20422;-25
2023/08/23 00:31:52;;;;;;;0.20;0.20;;;;;;;;;;1053141;28;20024;-24
2023/08/23 00:32:23;;;;;;;0.70;0.60;;;;;;;;;;1052838;28;20089;-25
2023/08/23 00:32:53;;;;;;;1.02;0.90;;;;;;;;;;1053086;28;20137;-26
2023/08/23 00:33:24;;;;;;;0.28;0.28;;;;;;;;;;1053160;28;20031;-25
2023/08/23 00:33:54;;;;;;;1.67;0.38;;;;;;;;;;1052581;28;20031;-25
2023/08/23 00:34:25;;;;;;;1.45;1.35;;;;;;;;;;1052193;28;20562;-24
2023/08/23 00:34:55;;;;;;;0.20;0.20;;;;;;;;;;1053023;28;20496;-25
2023/08/23 00:35:26;;;;;;;2.35;1.30;;;;;;;;;;1053149;28;20122;-26
2023/08/23 00:35:56;;;;;;;3.80;2.92;;;;;;;;;;1052952;28;20024;-25
2023/08/23 00:36:27;;;;;;;6.65;0.85;;;;;;;;;;1053074;28;20114;-25
2023/08/23 00:36:57;;;;;;;0.10;0.10;;;;;;;;;;1051980;28;20162;-24
2023/08/23 00:37:28;;;;;;;0.40;0.40;;;;;;;;;;1053050;28;20074;-25
2023/08/23 00:37:58;;;;;;;0.17;0.17;;;;;;;;;;1052964;28;20034;-25
2023/08/23 00:38:29;;;;;;;0.25;0.20;;;;;;;;;;1053045;28;20471;-24
2023/08/23 00:38:59;;;;;;;4.45;1.95;;;;;;;;;;1053011;28;20540;-25
2023/08/23 00:39:29;;;;;;;3.25;1.65;;;;;;;;;;1053070;28;20035;-25
2023/08/23 00:40:00;;;;;;;2.78;2.53;;;;;;;;;;1052889;28;20020;-25
2023/08/23 00:40:31;;;;;;;3.92;3.55;;;;;;;;;;1053148;28;20438;-25
2023/08/23 00:41:02;;;;;;;5.32;3.55;;;;;;;;;;1052844;28;20053;-25
2023/08/23 00:41:32;;;;;;;18.33;4.70;;;;;;;;;;1052783;28;20591;-25
2023/08/23 00:42:03;;;;;;;1.42;1.20;;;;;;;;;;1052954;28;20024;-24
2023/08/23 00:42:33;;;;;;;2.78;2.55;;;;;;;;;;1052992;28;20032;-25
2023/08/23 00:43:06;;;;;;;2.00;1.85;;;;;;;;;;1052428;28;20114;-25
2023/08/23 00:43:37;;;;;;;5.93;3.20;;;;;;;;;;1053268;28;20038;-25
2023/08/23 00:44:07;;;;;;;5.70;3.55;;;;;;;;;;1052931;28;20023;-25
2023/08/23 00:44:38;;;;;;;3.53;2.58;;;;;;;;;;1053044;28;20028;-25
2023/08/23 00:45:08;;;;;;;7.45;3.17;;;;;;;;;;1052961;28;20552;-25
2023/08/23 00:45:40;;;;;;;1.27;1.17;;;;;;;;;;1052965;28;20497;-25
2023/08/23 00:46:10;;;;;;;7.53;2.78;;;;;;;;;;1052844;28;20024;-25
2023/08/23 00:46:41;;;;;;;2.40;2.03;;;;;;;;;;1053065;28;20464;-25
2023/08/23 00:47:11;;;;;;;8.32;4.63;;;;;;;;;;1053042;28;20023;-25
2023/08/23 00:47:42;;;;;;;19.17;2.88;;;;;;;;;;1052933;28;20035;-25
2023/08/23 00:48:12;;;;;;;5.85;3.00;;;;;;;;;;1052958;28;20108;-24
2023/08/23 00:48:46;;;;;;;16.52;6.60;;;;;;;;;;1053092;28;20114;-25
2023/08/23 00:49:17;;;;;;;4.03;3.03;;;;;;;;;;1052876;28;20034;-25
2023/08/23 00:49:48;;;;;;;4.03;3.25;;;;;;;;;;1053004;28;20039;-25
2023/08/23 00:50:18;;;;;;;23.27;9.32;;;;;;;;;;1052908;28;20028;-24
2023/08/23 00:50:48;;;;;;;13.45;6.43;;;;;;;;;;1052966;28;20114;-24
2023/08/23 00:51:19;;;;;;;38.72;10.38;;;;;;;;;;1053015;28;20032;-26
2023/08/23 00:51:50;;;;;;;12.20;6.65;;;;;;;;;;1052952;28;20046;-25
2023/08/23 00:52:20;;;;;;;16.13;8.13;;;;;;;;;;1050452;28;20447;-25
2023/08/23 00:52:51;;;;;;;25.45;11.88;;;;;;;;;;1049280;28;20028;-26
2023/08/23 00:53:22;;;;;;;10.40;5.35;;;;;;;;;;1052287;28;20480;-24
2023/08/23 00:53:52;;;;;;;13.10;6.25;;;;;;;;;;1052641;28;20073;-24
2023/08/23 00:54:22;;;;;;;8.05;4.93;;;;;;;;;;1052907;28;20039;-25
2023/08/23 00:54:54;;;;;;;15.60;6.40;;;;;;;;;;1052715;28;20497;-25
2023/08/23 00:55:24;;;;;;;8.32;4.20;;;;;;;;;;1052986;28;20065;-25
2023/08/23 00:55:55;;;;;;;18.10;6.25;;;;;;;;;;1052434;28;20428;-25
2023/08/23 00:56:26;;;;;;;11.30;4.75;;;;;;;;;;1053071;28;20020;-26
2023/08/23 00:56:59;;;;;;;12.05;5.07;;;;;;;;;;1052547;28;20459;-24
2023/08/23 00:57:30;;;;;;;14.00;5.82;;;;;;;;;;1048766;28;20518;-26
2023/08/23 00:58:00;;;;;;;26.65;8.13;;;;;;;;;;1048665;28;20035;-23
2023/08/23 00:58:32;;;;;;;22.60;7.35;;;;;;;;;;1048931;28;20028;-26
2023/08/23 00:59:02;;;;;;;15.65;6.68;;;;;;;;;;1048430;28;20115;-25
2023/08/23 00:59:35;;;;;;;7.50;3.95;;;;;;;;;;1048928;28;20028;-26
2023/08/23 01:00:06;;;;;;;12.98;5.55;;;;;;;;;;1048674;28;20438;-25
2023/08/23 01:00:36;;;;;;;18.95;5.35;;;;;;;;;;1048874;28;20059;-26
2023/08/23 01:01:07;;;;;;;27.02;6.05;;;;;;;;;;1048467;28;20020;-25
2023/08/23 01:01:37;;;;;;;30.55;10.63;;;;;;;;;;1048900;28;20036;-24
2023/08/23 01:02:08;;;;;;;38.00;13.55;;;;;;;;;;1048747;28;20032;-25
2023/08/23 01:02:39;;;;;;;30.35;10.85;;;;;;;;;;1048767;28;20081;-25
2023/08/23 01:03:11;;;;;;;13.18;6.30;;;;;;;;;;1048953;28;20043;-25
2023/08/23 01:03:41;;;;;;;21.05;8.75;;;;;;;;;;1052916;28;20487;-25
2023/08/23 01:04:11;;;;;;;25.15;6.72;;;;;;;;;;1052772;28;20023;-26
2023/08/23 01:04:42;;;;;;;13.18;6.28;;;;;;;;;;1052960;28;20032;-25
2023/08/23 01:05:12;;;;;;;7.88;4.40;;;;;;;;;;1052689;28;20375;-26
2023/08/23 01:06:03;;;;;;;27.48;6.25;;;;;;;;;;1052949;28;20433;-26
2023/08/23 01:07:06;;;;;;;7.47;4.93;;;;;;;;;;1049161;28;20466;-26
2023/08/23 01:07:36;;;;;;;8.73;2.75;;;;;;;;;;1048203;28;20383;-25
2023/08/23 01:08:12;;;;;;;4.28;2.40;;;;;;;;;;1048154;28;20115;-25
2023/08/23 01:09:02;;;;;;;10.60;4.28;;;;;;;;;;1047836;28;20038;-26
2023/08/23 01:09:38;;;;;;;2.70;1.77;;;;;;;;;;1048487;28;20028;-24
2023/08/23 01:10:21;;;;;;;1.10;1.00;;;;;;;;;;1048639;28;20082;-25
2023/08/23 01:10:54;;;;;;;1.05;1.02;;;;;;;;;;1048397;28;20060;-25
2023/08/23 01:11:25;;;;;;;1.60;1.50;;;;;;;;;;1048729;28;20024;-25
2023/08/23 01:12:13;;;;;;;0.40;0.40;;;;;;;;;;1048773;28;20020;-25
2023/08/23 01:12:49;;;;;;;0.10;0.03;;;;;;;;;;1048398;28;20395;-26
2023/08/23 01:13:24;;;;;;;3.20;1.25;;;;;;;;;;1048391;28;20035;-26
2023/08/23 01:14:01;;;;;;;0.73;0.68;;;;;;;;;;1048557;28;20040;-26
2023/08/23 01:14:37;;;;;;;0.65;0.47;;;;;;;;;;1048395;28;20025;-26
2023/08/23 01:15:09;;;;;;;0.30;0.30;;;;;;;;;;1048152;28;20053;-26
2023/08/23 01:15:40;;;;;;;3.45;2.95;;;;;;;;;;1048564;28;20490;-26
2023/08/23 01:16:11;;;;;;;0.20;0.20;;;;;;;;;;1052550;28;20032;-25
2023/08/23 01:16:46;;;;;;;0.00;0.00;;;;;;;;;;1052689;28;20020;-24
2023/08/23 01:17:18;;;;;;;1.67;0.95;;;;;;;;;;1052134;28;20040;-24
2023/08/23 01:17:49;;;;;;;1.23;1.13;;;;;;;;;;1052506;28;20024;-26
2023/08/23 01:18:19;;;;;;;0.00;0.00;;;;;;;;;;1052424;28;20028;-26
2023/08/23 01:18:50;;;;;;;0.35;0.35;;;;;;;;;;1052676;28;20126;-25
2023/08/23 01:19:27;;;;;;;0.65;0.65;;;;;;;;;;1052531;28;20028;-26
2023/08/23 01:19:58;;;;;;;1.33;0.47;;;;;;;;;;1052686;28;20028;-25
2023/08/23 01:20:29;;;;;;;0.17;0.17;;;;;;;;;;1052477;28;20372;-25
2023/08/23 01:21:01;;;;;;;0.82;0.82;;;;;;;;;;1048030;28;20033;-26
2023/08/23 01:21:33;;;;;;;1.40;0.60;;;;;;;;;;1048468;28;20056;-25
2023/08/23 01:22:04;;;;;;;1.50;0.68;;;;;;;;;;1048470;28;20029;-26
2023/08/23 01:22:38;;;;;;;1.13;1.02;;;;;;;;;;1048261;28;20025;-26
2023/08/23 01:23:15;;;;;;;0.52;0.40;;;;;;;;;;1048093;28;20484;-25
2023/08/23 01:23:46;;;;;;;0.43;0.43;;;;;;;;;;1048371;28;20036;-26
2023/08/23 01:24:17;;;;;;;0.47;0.47;;;;;;;;;;1048219;28;20135;-25
2023/08/23 01:24:48;;;;;;;0.70;0.63;;;;;;;;;;1050826;28;20032;-25
2023/08/23 01:25:19;;;;;;;0.20;0.20;;;;;;;;;;1052540;28;20043;-26
2023/08/23 01:25:50;;;;;;;1.55;1.17;;;;;;;;;;1052474;28;20055;-26
2023/08/23 01:26:21;;;;;;;2.13;0.20;;;;;;;;;;1052287;28;20489;-25
2023/08/23 01:26:51;;;;;;;2.65;1.27;;;;;;;;;;1052600;28;20073;-26
2023/08/23 01:27:22;;;;;;;7.22;1.58;;;;;;;;;;1052495;28;20051;-26
2023/08/23 01:27:52;;;;;;;0.70;0.70;;;;;;;;;;1052485;28;20020;-25
2023/08/23 01:28:23;;;;;;;1.95;1.85;;;;;;;;;;1052352;28;20123;-26
2023/08/23 01:28:53;;;;;;;0.30;0.30;;;;;;;;;;1052572;28;20030;-26
2023/08/23 01:29:23;;;;;;;1.15;1.05;;;;;;;;;;1050386;28;20030;-24
2023/08/23 01:29:54;;;;;;;1.10;1.05;;;;;;;;;;1049778;28;20096;-25
2023/08/23 01:30:25;;;;;;;0.45;0.30;;;;;;;;;;1048280;28;20024;-26
2023/08/23 01:30:59;;;;;;;1.13;0.90;;;;;;;;;;1051001;28;20039;-25
2023/08/23 01:31:32;;;;;;;2.03;1.27;;;;;;;;;;1052671;28;20040;-25
2023/08/23 01:32:07;;;;;;;1.27;1.17;;;;;;;;;;1052619;28;20027;-25
2023/08/23 01:32:40;;;;;;;0.95;0.88;;;;;;;;;;1052765;28;20482;-26
2023/08/23 01:33:16;;;;;;;2.45;1.52;;;;;;;;;;1052671;28;20028;-25
2023/08/23 01:33:50;;;;;;;0.52;0.52;;;;;;;;;;1052965;28;20020;-26
2023/08/23 01:34:30;;;;;;;0.60;0.60;;;;;;;;;;1052234;28;20024;-25
2023/08/23 01:35:21;;;;;;;3.55;0.73;;;;;;;;;;1052242;28;20372;-26
2023/08/23 01:35:58;;;;;;;0.43;0.35;;;;;;;;;;1052173;28;20036;-26
2023/08/23 01:36:28;;;;;;;1.25;1.15;;;;;;;;;;1052412;28;20020;-26
2023/08/23 01:37:01;;;;;;;0.65;0.45;;;;;;;;;;1052280;28;20028;-26
2023/08/23 01:37:32;;;;;;;3.47;1.58;;;;;;;;;;1052793;28;20114;-24
2023/08/23 01:38:04;;;;;;;0.25;0.20;;;;;;;;;;1052710;28;20020;-26
2023/08/23 01:38:34;;;;;;;0.15;0.15;;;;;;;;;;1052904;28;20030;-25
2023/08/23 01:39:05;;;;;;;1.00;0.73;;;;;;;;;;1052507;28;20047;-26
2023/08/23 01:39:36;;;;;;;7.32;1.75;;;;;;;;;;1052669;28;20028;-25
2023/08/23 01:40:11;;;;;;;0.15;0.15;;;;;;;;;;1052654;28;20076;-26
2023/08/23 01:40:42;;;;;;;1.25;0.85;;;;;;;;;;1052526;28;20399;-25
2023/08/23 01:41:13;;;;;;;0.80;0.80;;;;;;;;;;1052255;28;20088;-25
2023/08/23 01:41:43;;;;;;;0.65;0.65;;;;;;;;;;1052547;28;20032;-26
2023/08/23 01:42:14;;;;;;;2.03;0.88;;;;;;;;;;1052223;28;20379;-25
2023/08/23 01:42:45;;;;;;;0.10;0.10;;;;;;;;;;1052728;28;20027;-25
2023/08/23 01:43:15;;;;;;;4.97;1.40;;;;;;;;;;1052649;28;20024;-25
2023/08/23 01:43:46;;;;;;;0.43;0.43;;;;;;;;;;1052890;28;20028;-25
2023/08/23 01:44:17;;;;;;;9.65;1.65;;;;;;;;;;1052528;28;20030;-24
2023/08/23 01:44:49;;;;;;;1.30;1.13;;;;;;;;;;1052818;28;20055;-25
2023/08/23 01:45:19;;;;;;;1.65;0.95;;;;;;;;;;1052593;28;20024;-25
2023/08/23 01:45:50;;;;;;;0.10;0.10;;;;;;;;;;1052726;28;20111;-25
2023/08/23 01:46:20;;;;;;;10.02;3.60;;;;;;;;;;1052691;28;20052;-26
2023/08/23 01:46:51;;;;;;;1.77;1.58;;;;;;;;;;1052747;28;20152;-24
2023/08/23 01:47:21;;;;;;;0.10;0.10;;;;;;;;;;1052632;28;20034;-24
2023/08/23 01:47:52;;;;;;;1.25;1.20;;;;;;;;;;1052731;28;20031;-25
2023/08/23 01:48:22;;;;;;;2.33;2.13;;;;;;;;;;1051812;28;20032;-24
2023/08/23 01:48:52;;;;;;;18.65;2.55;;;;;;;;;;1052430;28;20028;-25
2023/08/23 01:49:23;;;;;;;2.40;0.75;;;;;;;;;;1052505;28;20035;-26
2023/08/23 01:49:53;;;;;;;0.98;0.98;;;;;;;;;;1052453;28;20020;-26
2023/08/23 01:50:24;;;;;;;3.20;0.75;;;;;;;;;;1052685;28;20038;-25
2023/08/23 01:50:55;;;;;;;1.42;0.52;;;;;;;;;;1052319;28;20035;-24
2023/08/23 01:51:25;;;;;;;2.42;1.35;;;;;;;;;;1052791;28;20031;-24
2023/08/23 01:51:56;;;;;;;5.75;2.33;;;;;;;;;;1052731;28;20062;-24
2023/08/23 01:52:26;;;;;;;0.03;0.03;;;;;;;;;;1052670;28;20122;-25
2023/08/23 01:52:57;;;;;;;0.55;0.55;;;;;;;;;;1052567;28;20024;-24
2023/08/23 01:53:27;;;;;;;0.63;0.63;;;;;;;;;;1052680;28;20475;-25
2023/08/23 01:53:58;;;;;;;1.50;1.40;;;;;;;;;;1052702;28;20059;-25
2023/08/23 01:54:28;;;;;;;1.65;1.48;;;;;;;;;;1049472;28;20035;-25
2023/08/23 01:54:59;;;;;;;0.60;0.60;;;;;;;;;;1050522;28;20440;-26
2023/08/23 01:55:29;;;;;;;1.95;1.45;;;;;;;;;;1052659;28;20532;-25
2023/08/23 01:56:00;;;;;;;2.30;1.35;;;;;;;;;;1052275;28;20024;-26
2023/08/23 01:56:30;;;;;;;0.22;0.22;;;;;;;;;;1052435;28;20028;-26
2023/08/23 01:57:01;;;;;;;5.35;0.90;;;;;;;;;;1052190;28;20111;-25
2023/08/23 01:57:31;;;;;;;2.03;1.55;;;;;;;;;;1052621;28;20028;-26
2023/08/23 01:58:02;;;;;;;3.08;1.80;;;;;;;;;;1052639;28;20020;-26
2023/08/23 01:58:32;;;;;;;2.13;2.00;;;;;;;;;;1052452;28;20035;-25
2023/08/23 01:59:03;;;;;;;0.13;0.13;;;;;;;;;;1052089;28;20035;-23
2023/08/23 01:59:33;;;;;;;1.08;0.70;;;;;;;;;;1052779;28;20032;-25
2023/08/23 02:00:04;;;;;;;1.83;1.73;;;;;;;;;;1052546;28;20031;-24
2023/08/23 02:00:34;;;;;;;0.20;0.20;;;;;;;;;;1052620;28;20020;-25
2023/08/23 02:01:05;;;;;;;1.25;1.15;;;;;;;;;;1052317;28;20066;-26
2023/08/23 02:01:35;;;;;;;0.30;0.30;;;;;;;;;;1052835;28;20028;-25
2023/08/23 02:02:06;;;;;;;0.95;0.88;;;;;;;;;;1052620;28;20031;-25
2023/08/23 02:02:36;;;;;;;2.60;1.05;;;;;;;;;;1052461;28;20542;-24
2023/08/23 02:03:07;;;;;;;0.22;0.22;;;;;;;;;;1052271;28;20023;-26
2023/08/23 02:03:37;;;;;;;6.63;1.08;;;;;;;;;;1052775;28;20062;-26
2023/08/23 02:04:07;;;;;;;1.08;0.98;;;;;;;;;;1052664;28;20425;-24
2023/08/23 02:04:38;;;;;;;1.45;1.15;;;;;;;;;;1052940;28;20391;-25
2023/08/23 02:05:08;;;;;;;0.30;0.30;;;;;;;;;;1052496;28;20031;-24
2023/08/23 02:05:39;;;;;;;2.05;0.75;;;;;;;;;;1052360;28;20081;-24
2023/08/23 02:06:09;;;;;;;0.47;0.47;;;;;;;;;;1052530;28;20036;-25
2023/08/23 02:06:40;;;;;;;0.25;0.25;;;;;;;;;;1052658;28;20028;-25
2023/08/23 02:07:10;;;;;;;0.30;0.20;;;;;;;;;;1052498;28;20383;-26
2023/08/23 02:07:41;;;;;;;0.90;0.68;;;;;;;;;;1052673;28;20027;-25
2023/08/23 02:08:11;;;;;;;8.88;1.15;;;;;;;;;;1052579;28;20035;-24
2023/08/23 02:08:42;;;;;;;0.50;0.50;;;;;;;;;;1052708;28;20031;-23
2023/08/23 02:09:12;;;;;;;1.77;1.13;;;;;;;;;;1052348;28;20751;-25
2023/08/23 02:09:43;;;;;;;1.02;0.90;;;;;;;;;;1052513;28;20544;-24
2023/08/23 02:10:13;;;;;;;0.00;0.00;;;;;;;;;;1052167;28;20489;-25
2023/08/23 02:10:43;;;;;;;1.17;1.10;;;;;;;;;;1052660;28;20020;-26
2023/08/23 02:11:14;;;;;;;5.80;4.10;;;;;;;;;;1052119;28;20082;-23
2023/08/23 02:11:44;;;;;;;1.92;1.60;;;;;;;;;;1052785;28;20495;-22
2023/08/23 02:12:15;;;;;;;0.40;0.40;;;;;;;;;;1052055;28;20059;-24
2023/08/23 02:12:45;;;;;;;0.52;0.52;;;;;;;;;;1051571;28;20462;-23
2023/08/23 02:13:16;;;;;;;0.17;0.17;;;;;;;;;;1052064;28;20035;-24
2023/08/23 02:13:46;;;;;;;0.20;0.20;;;;;;;;;;1052348;28;20027;-24
2023/08/23 02:14:17;;;;;;;0.47;0.47;;;;;;;;;;1052008;28;20537;-23
2023/08/23 02:14:47;;;;;;;0.93;0.88;;;;;;;;;;1052321;28;20395;-23
2023/08/23 02:15:17;;;;;;;1.42;1.33;;;;;;;;;;1052082;28;20032;-22
2023/08/23 02:15:48;;;;;;;0.63;0.63;;;;;;;;;;1050872;28;20077;-21
2023/08/23 02:16:18;;;;;;;0.95;0.90;;;;;;;;;;1048018;28;20178;-25
2023/08/23 02:16:49;;;;;;;8.70;1.15;;;;;;;;;;1048210;28;20024;-22
2023/08/23 02:17:19;;;;;;;0.98;0.90;;;;;;;;;;1048515;28;20094;-24
2023/08/23 02:17:50;;;;;;;0.65;0.50;;;;;;;;;;1049971;28;20024;-24
2023/08/23 02:18:21;;;;;;;0.73;0.73;;;;;;;;;;1048496;28;20534;-25
2023/08/23 02:18:51;;;;;;;2.05;1.95;;;;;;;;;;1051361;28;20086;-24
2023/08/23 02:19:22;;;;;;;0.90;0.90;;;;;;;;;;1049880;28;20035;-24
2023/08/23 02:19:52;;;;;;;0.75;0.70;;;;;;;;;;1051114;28;20023;-24
2023/08/23 02:20:23;;;;;;;4.22;0.77;;;;;;;;;;1049739;28;20553;-24
2023/08/23 02:20:57;;;;;;;0.70;0.65;;;;;;;;;;1050596;28;20024;-24
2023/08/23 02:21:29;;;;;;;1.67;1.23;;;;;;;;;;1050410;28;20028;-24
2023/08/23 02:21:59;;;;;;;0.47;0.47;;;;;;;;;;1049317;28;20387;-25
2023/08/23 02:22:30;;;;;;;0.75;0.70;;;;;;;;;;1050038;28;20059;-24
2023/08/23 02:23:00;;;;;;;0.85;0.65;;;;;;;;;;1050090;28;20034;-25
2023/08/23 02:23:30;;;;;;;6.78;1.73;;;;;;;;;;1050071;28;20065;-25
2023/08/23 02:24:01;;;;;;;0.70;0.35;;;;;;;;;;1050299;28;20545;-24
2023/08/23 02:24:31;;;;;;;0.47;0.40;;;;;;;;;;1049952;28;20031;-23
2023/08/23 02:25:02;;;;;;;3.15;2.28;;;;;;;;;;1050947;28;20032;-23
2023/08/23 02:25:32;;;;;;;0.85;0.85;;;;;;;;;;1051369;28;20089;-24
2023/08/23 02:26:03;;;;;;;0.52;0.45;;;;;;;;;;1049019;28;21418;-24
2023/08/23 02:26:37;;;;;;;0.17;0.15;;;;;;;;;;1050845;28;20062;-23
2023/08/23 02:27:07;;;;;;;0.47;0.45;;;;;;;;;;1050134;28;20012;-22
2023/08/23 02:27:38;;;;;;;0.45;0.45;;;;;;;;;;1050009;28;20031;-23
2023/08/23 02:28:08;;;;;;;1.13;1.02;;;;;;;;;;1050780;28;20047;-24
2023/08/23 02:28:39;;;;;;;0.82;0.82;;;;;;;;;;1049811;28;20020;-25
2023/08/23 02:29:09;;;;;;;5.05;1.98;;;;;;;;;;1051431;28;20070;-24
2023/08/23 02:29:40;;;;;;;1.17;0.50;;;;;;;;;;1050504;28;20116;-24
2023/08/23 02:30:10;;;;;;;1.45;1.35;;;;;;;;;;1050072;28;20028;-24
2023/08/23 02:30:41;;;;;;;0.95;0.90;;;;;;;;;;1050162;28;20569;-25
2023/08/23 02:31:11;;;;;;;1.88;0.77;;;;;;;;;;1050134;28;20420;-24
2023/08/23 02:31:42;;;;;;;0.70;0.70;;;;;;;;;;1050475;28;20020;-24
2023/08/23 02:32:12;;;;;;;2.47;0.47;;;;;;;;;;1050127;28;20123;-25
2023/08/23 02:32:43;;;;;;;1.60;1.50;;;;;;;;;;1050081;28;20033;-24
2023/08/23 02:33:13;;;;;;;1.45;1.20;;;;;;;;;;1050194;28;20024;-23
2023/08/23 02:33:44;;;;;;;0.55;0.55;;;;;;;;;;1050056;28;20093;-25
2023/08/23 02:34:14;;;;;;;5.70;1.08;;;;;;;;;;1051400;28;20035;-25
2023/08/23 02:34:45;;;;;;;0.43;0.28;;;;;;;;;;1049715;28;20032;-25
2023/08/23 02:35:15;;;;;;;15.38;1.58;;;;;;;;;;1050682;28;20024;-23
2023/08/23 02:35:47;;;;;;;1.20;1.10;;;;;;;;;;1050097;28;20041;-24
2023/08/23 02:36:17;;;;;;;1.75;0.90;;;;;;;;;;1047873;28;20594;-25
2023/08/23 02:36:47;;;;;;;5.18;2.40;;;;;;;;;;1048956;28;20035;-25
2023/08/23 02:37:18;;;;;;;1.85;1.75;;;;;;;;;;1050468;28;20077;-25
2023/08/23 02:37:49;;;;;;;0.85;0.85;;;;;;;;;;1050210;28;20020;-23
2023/08/23 02:38:19;;;;;;;0.57;0.55;;;;;;;;;;1048991;28;20032;-25
2023/08/23 02:38:50;;;;;;;0.15;0.10;;;;;;;;;;1050982;28;20110;-24
2023/08/23 02:39:20;;;;;;;1.42;0.73;;;;;;;;;;1051774;28;20471;-25
2023/08/23 02:39:50;;;;;;;0.20;0.20;;;;;;;;;;1049927;28;20020;-25
2023/08/23 02:40:21;;;;;;;0.90;0.90;;;;;;;;;;1050014;28;20032;-23
2023/08/23 02:40:54;;;;;;;0.88;0.75;;;;;;;;;;1050160;28;20161;-25
2023/08/23 02:41:24;;;;;;;0.88;0.88;;;;;;;;;;1050195;28;20034;-24
2023/08/23 02:41:55;;;;;;;0.52;0.50;;;;;;;;;;1050313;28;20031;-24
2023/08/23 02:42:25;;;;;;;3.50;1.15;;;;;;;;;;1050018;28;20027;-23
2023/08/23 02:42:56;;;;;;;1.55;0.85;;;;;;;;;;1049846;28;20501;-25
2023/08/23 02:43:26;;;;;;;2.58;1.90;;;;;;;;;;1050744;28;20115;-24
2023/08/23 02:43:57;;;;;;;3.00;1.15;;;;;;;;;;1050184;28;20021;-25
2023/08/23 02:44:27;;;;;;;0.25;0.25;;;;;;;;;;1049801;28;20017;-24
2023/08/23 02:44:58;;;;;;;0.60;0.60;;;;;;;;;;1049951;28;20021;-24
2023/08/23 02:45:28;;;;;;;1.35;1.17;;;;;;;;;;1049640;28;20059;-25
2023/08/23 02:45:59;;;;;;;1.15;1.08;;;;;;;;;;1051221;28;20022;-24
2023/08/23 02:46:29;;;;;;;0.93;0.40;;;;;;;;;;1049398;28;20546;-24
2023/08/23 02:47:00;;;;;;;0.73;0.73;;;;;;;;;;1048439;28;20024;-25
2023/08/23 02:47:30;;;;;;;0.98;0.38;;;;;;;;;;1048497;28;20028;-24
2023/08/23 02:48:01;;;;;;;0.63;0.47;;;;;;;;;;1048819;28;20032;-24
2023/08/23 02:48:31;;;;;;;1.42;0.85;;;;;;;;;;1049353;28;20024;-25
2023/08/23 02:49:02;;;;;;;4.65;1.30;;;;;;;;;;1050043;28;20016;-25
2023/08/23 02:49:32;;;;;;;1.05;1.05;;;;;;;;;;1050570;28;20497;-24
2023/08/23 02:50:03;;;;;;;0.77;0.55;;;;;;;;;;1051282;28;20386;-23
2023/08/23 02:50:33;;;;;;;1.77;1.65;;;;;;;;;;1050055;28;20016;-23
2023/08/23 02:51:04;;;;;;;0.93;0.82;;;;;;;;;;1049585;28;20066;-24
2023/08/23 02:51:34;;;;;;;0.40;0.20;;;;;;;;;;1050822;28;20475;-24
2023/08/23 02:52:05;;;;;;;1.77;0.70;;;;;;;;;;1050074;28;20479;-24
2023/08/23 02:52:35;;;;;;;0.93;0.90;;;;;;;;;;1049589;28;20426;-23
2023/08/23 02:53:06;;;;;;;0.82;0.82;;;;;;;;;;1045474;28;20023;-22
2023/08/23 02:53:36;;;;;;;0.63;0.55;;;;;;;;;;1047263;28;20019;-22
2023/08/23 02:54:07;;;;;;;1.15;0.98;;;;;;;;;;1046678;28;20024;-23
2023/08/23 02:54:38;;;;;;;1.00;0.90;;;;;;;;;;1048532;28;20427;-25
2023/08/23 02:55:08;;;;;;;2.45;1.48;;;;;;;;;;1023726;28;20377;-23
2023/08/23 02:55:39;;;;;;;3.70;2.58;;;;;;;;;;1029542;28;20114;-24
2023/08/23 02:56:10;;;;;;;1.60;1.13;;;;;;;;;;1014779;28;20300;-24
2023/08/23 02:56:40;;;;;;;0.00;0.00;;;;;;;;;;1017367;28;20016;-24
2023/08/23 02:57:10;;;;;;;4.97;1.45;;;;;;;;;;1019552;28;20397;-25
2023/08/23 02:57:41;;;;;;;12.70;2.53;;;;;;;;;;1021021;28;20077;-23
2023/08/23 02:58:12;;;;;;;1.35;1.25;;;;;;;;;;1013823;28;20334;-24
2023/08/23 02:58:42;;;;;;;3.50;1.35;;;;;;;;;;1023806;28;20132;-24
2023/08/23 02:59:13;;;;;;;1.25;0.75;;;;;;;;;;1014572;28;20028;-24
2023/08/23 02:59:43;;;;;;;0.57;0.55;;;;;;;;;;1016009;28;20031;-22
2023/08/23 03:00:14;;;;;;;1.35;0.73;;;;;;;;;;1008306;28;20359;-24
2023/08/23 03:00:44;;;;;;;2.55;1.13;;;;;;;;;;1003052;28;20480;-24
2023/08/23 03:01:15;;;;;;;0.20;0.20;;;;;;;;;;1003691;28;20484;-25
2023/08/23 03:01:46;;;;;;;0.03;0.03;;;;;;;;;;1002664;28;20017;-23
2023/08/23 03:02:16;;;;;;;0.75;0.75;;;;;;;;;;1010796;28;20133;-22
2023/08/23 03:02:47;;;;;;;1.02;0.98;;;;;;;;;;1024150;28;20888;-24
2023/08/23 03:03:17;;;;;;;7.18;1.65;;;;;;;;;;1027029;28;20461;-25
2023/08/23 03:03:48;;;;;;;0.10;0.10;;;;;;;;;;1038813;28;20024;-24
2023/08/23 03:04:18;;;;;;;1.05;0.98;;;;;;;;;;1042458;28;20093;-25
2023/08/23 03:04:49;;;;;;;0.82;0.82;;;;;;;;;;1039085;28;20016;-22
2023/08/23 03:05:19;;;;;;;0.40;0.40;;;;;;;;;;1039089;28;20028;-23
2023/08/23 03:05:55;;;;;;;2.45;1.90;;;;;;;;;;1042782;28;20077;-22
2023/08/23 03:06:26;;;;;;;2.97;2.78;;;;;;;;;;1043008;28;20438;-24
2023/08/23 03:06:57;;;;;;;0.77;0.35;;;;;;;;;;1042336;28;20032;-24